sensor_id;sensor_type;location;lat;lon;timestamp;temperature;humidity
25328;DHT22;13279;51.300;12.394;2022-08-14T18:01:13;28.60;1.00
25328;DHT22;13279;51.300;12.394;2022-08-14T18:03:42;28.50;1.00
25328;DHT22;13279;51.300;12.394;2022-08-14T18:06:11;28.50;1.00
25328;DHT22;13279;51.300;12.394;2022-08-14T18:08:39;28.40;1.00
25328;DHT22;13279;51.300;12.394;2022-08-14T18:11:06;28.30;1.00
25328;DHT22;13279;51.300;12.394;2022-08-14T18:16:44;28.10;1.00
25328;DHT22;13279;51.300;12.394;2022-08-14T18:19:12;28.10;1.00
25328;DHT22;13279;51.300;12.394;2022-08-14T18:21:42;28.00;1.00
25328;DHT22;13279;51.300;12.394;2022-08-14T18:24:10;27.90;99.90
25328;DHT22;13279;51.300;12.394;2022-08-14T18:26:38;27.80;99.90
25328;DHT22;13279;51.300;12.394;2022-08-14T18:29:06;27.70;1.00
25328;DHT22;13279;51.300;12.394;2022-08-14T18:31:35;27.70;1.00
25328;DHT22;13279;51.300;12.394;2022-08-14T18:34:09;27.60;1.00
25328;DHT22;13279;51.300;12.394;2022-08-14T18:36:41;27.50;1.00
25328;DHT22;13279;51.300;12.394;2022-08-14T18:39:23;27.40;99.90
25328;DHT22;13279;51.300;12.394;2022-08-14T18:41:52;27.30;99.90
25328;DHT22;13279;51.300;12.394;2022-08-14T18:47:25;27.10;1.00
25328;DHT22;13279;51.300;12.394;2022-08-14T18:50:05;27.10;1.00
25328;DHT22;13279;51.300;12.394;2022-08-14T18:52:43;27.00;1.00
25328;DHT22;13279;51.300;12.394;2022-08-14T18:55:47;26.90;1.00
25328;DHT22;13279;51.300;12.394;2022-08-14T18:58:17;26.90;1.00
25328;DHT22;13279;51.300;12.394;2022-08-14T19:00:48;26.80;99.90
25328;DHT22;13279;51.300;12.394;2022-08-14T19:06:42;26.70;1.00
25328;DHT22;13279;51.300;12.394;2022-08-14T19:09:49;26.60;1.00
25328;DHT22;13279;51.300;12.394;2022-08-14T19:15:18;26.50;1.00
25328;DHT22;13279;51.300;12.394;2022-08-14T19:17:46;26.40;99.90
25328;DHT22;13279;51.300;12.394;2022-08-14T19:20:15;26.30;1.00
25328;DHT22;13279;51.300;12.394;2022-08-14T19:22:45;26.30;1.00
25328;DHT22;13279;51.300;12.394;2022-08-14T19:25:47;26.20;1.00
25328;DHT22;13279;51.300;12.394;2022-08-14T19:28:16;26.10;1.00
25328;DHT22;13279;51.300;12.394;2022-08-14T19:30:44;26.10;1.00
25328;DHT22;13279;51.300;12.394;2022-08-14T19:33:46;26.00;99.90
25328;DHT22;13279;51.300;12.394;2022-08-14T19:36:14;26.00;99.90
25328;DHT22;13279;51.300;12.394;2022-08-14T19:38:54;25.90;99.90
25328;DHT22;13279;51.300;12.394;2022-08-14T19:41:25;25.80;99.90
25328;DHT22;13279;51.300;12.394;2022-08-14T19:43:54;25.80;1.00
25328;DHT22;13279;51.300;12.394;2022-08-14T19:46:30;25.70;99.90
25328;DHT22;13279;51.300;12.394;2022-08-14T19:48:59;25.70;1.00
25328;DHT22;13279;51.300;12.394;2022-08-14T19:51:26;25.60;47.70
25328;DHT22;13279;51.300;12.394;2022-08-14T19:53:57;25.60;1.00
25328;DHT22;13279;51.300;12.394;2022-08-14T19:56:34;25.50;1.00
25328;DHT22;13279;51.300;12.394;2022-08-14T19:59:02;25.50;99.90
25328;DHT22;13279;51.300;12.394;2022-08-14T20:01:31;25.40;99.90
25328;DHT22;13279;51.300;12.394;2022-08-14T20:04:00;25.30;1.00
25328;DHT22;13279;51.300;12.394;2022-08-14T20:06:35;25.30;1.00
25328;DHT22;13279;51.300;12.394;2022-08-14T20:09:08;25.10;1.00
25328;DHT22;13279;51.300;12.394;2022-08-14T20:11:37;25.10;1.00
25328;DHT22;13279;51.300;12.394;2022-08-14T20:14:08;25.00;1.00
25328;DHT22;13279;51.300;12.394;2022-08-14T20:16:40;25.00;1.00
25328;DHT22;13279;51.300;12.394;2022-08-14T20:19:09;24.90;1.00
25328;DHT22;13279;51.300;12.394;2022-08-14T20:21:38;24.90;99.90
25328;DHT22;13279;51.300;12.394;2022-08-14T20:27:24;24.70;1.00
25328;DHT22;13279;51.300;12.394;2022-08-14T20:30:06;24.60;1.00
25328;DHT22;13279;51.300;12.394;2022-08-14T20:32:36;24.60;99.90
25328;DHT22;13279;51.300;12.394;2022-08-14T20:35:05;24.60;99.90
25328;DHT22;13279;51.300;12.394;2022-08-14T20:37:34;24.50;1.00
25328;DHT22;13279;51.300;12.394;2022-08-14T20:40:17;24.40;1.00
25328;DHT22;13279;51.300;12.394;2022-08-14T20:42:50;24.30;1.00
25328;DHT22;13279;51.300;12.394;2022-08-14T20:45:40;24.30;99.90
25328;DHT22;13279;51.300;12.394;2022-08-14T20:48:11;24.20;99.90
25328;DHT22;13279;51.300;12.394;2022-08-14T20:50:40;24.20;1.00
25328;DHT22;13279;51.300;12.394;2022-08-14T20:53:30;24.10;99.90
25328;DHT22;13279;51.300;12.394;2022-08-14T20:56:02;24.00;1.00
25328;DHT22;13279;51.300;12.394;2022-08-14T20:58:33;24.00;1.00
25328;DHT22;13279;51.300;12.394;2022-08-14T21:01:10;23.90;1.00
25328;DHT22;13279;51.300;12.394;2022-08-14T21:03:52;23.90;99.90
25328;DHT22;13279;51.300;12.394;2022-08-14T21:06:23;23.90;49.40
25328;DHT22;13279;51.300;12.394;2022-08-14T21:08:53;23.90;99.90
25328;DHT22;13279;51.300;12.394;2022-08-14T21:11:24;23.90;1.00
25328;DHT22;13279;51.300;12.394;2022-08-14T21:13:53;23.90;1.00
25328;DHT22;13279;51.300;12.394;2022-08-14T21:16:22;23.90;55.50
25328;DHT22;13279;51.300;12.394;2022-08-14T21:18:51;23.90;15.20
25328;DHT22;13279;51.300;12.394;2022-08-14T21:21:22;23.90;49.10
25328;DHT22;13279;51.300;12.394;2022-08-14T21:23:55;23.90;99.90
25328;DHT22;13279;51.300;12.394;2022-08-14T21:26:28;23.70;1.00
25328;DHT22;13279;51.300;12.394;2022-08-14T21:28:57;23.70;1.00
25328;DHT22;13279;51.300;12.394;2022-08-14T21:31:26;23.70;81.20
25328;DHT22;13279;51.300;12.394;2022-08-14T21:33:55;23.70;99.90
25328;DHT22;13279;51.300;12.394;2022-08-14T21:36:23;23.60;1.00
25328;DHT22;13279;51.300;12.394;2022-08-14T21:38:51;23.60;99.90
25328;DHT22;13279;51.300;12.394;2022-08-14T21:41:18;23.60;99.90
25328;DHT22;13279;51.300;12.394;2022-08-14T21:43:51;23.50;1.00
25328;DHT22;13279;51.300;12.394;2022-08-14T21:46:26;23.50;1.00
25328;DHT22;13279;51.300;12.394;2022-08-14T21:48:54;23.40;1.00
25328;DHT22;13279;51.300;12.394;2022-08-14T21:51:23;23.40;1.00
25328;DHT22;13279;51.300;12.394;2022-08-14T21:53:51;23.30;1.00
25328;DHT22;13279;51.300;12.394;2022-08-14T21:56:23;23.20;1.00
25328;DHT22;13279;51.300;12.394;2022-08-14T21:58:50;23.10;1.00
25328;DHT22;13279;51.300;12.394;2022-08-14T22:01:18;23.10;1.00
25328;DHT22;13279;51.300;12.394;2022-08-14T22:03:48;23.10;1.00
25328;DHT22;13279;51.300;12.394;2022-08-14T22:06:15;23.10;1.00
25328;DHT22;13279;51.300;12.394;2022-08-14T22:08:44;23.00;1.00
25328;DHT22;13279;51.300;12.394;2022-08-14T22:11:11;23.00;1.00
25328;DHT22;13279;51.300;12.394;2022-08-14T22:13:39;23.00;1.00
25328;DHT22;13279;51.300;12.394;2022-08-14T22:16:06;23.00;1.00
25328;DHT22;13279;51.300;12.394;2022-08-14T22:18:34;23.10;1.00
25328;DHT22;13279;51.300;12.394;2022-08-14T22:21:04;23.10;1.00
25328;DHT22;13279;51.300;12.394;2022-08-14T22:23:32;23.00;1.00
25328;DHT22;13279;51.300;12.394;2022-08-14T22:26:00;23.00;1.00
25328;DHT22;13279;51.300;12.394;2022-08-14T22:28:28;23.00;1.00
25328;DHT22;13279;51.300;12.394;2022-08-14T22:30:56;22.90;1.00
25328;DHT22;13279;51.300;12.394;2022-08-14T22:33:25;22.80;1.00
25328;DHT22;13279;51.300;12.394;2022-08-14T22:35:53;22.80;1.00
25328;DHT22;13279;51.300;12.394;2022-08-14T22:38:22;22.70;1.00
25328;DHT22;13279;51.300;12.394;2022-08-14T22:40:50;22.70;1.00
25328;DHT22;13279;51.300;12.394;2022-08-14T22:43:18;22.70;1.00
25328;DHT22;13279;51.300;12.394;2022-08-14T22:45:46;22.60;1.00
25328;DHT22;13279;51.300;12.394;2022-08-14T22:48:13;22.60;1.00
25328;DHT22;13279;51.300;12.394;2022-08-14T22:50:42;22.50;1.00
25328;DHT22;13279;51.300;12.394;2022-08-14T22:53:10;22.50;62.00
25328;DHT22;13279;51.300;12.394;2022-08-14T22:55:39;22.40;38.10
25328;DHT22;13279;51.300;12.394;2022-08-14T22:58:07;22.30;99.90
25328;DHT22;13279;51.300;12.394;2022-08-14T23:00:35;22.30;99.90
25328;DHT22;13279;51.300;12.394;2022-08-14T23:03:09;22.30;99.90
25328;DHT22;13279;51.300;12.394;2022-08-14T23:05:38;22.20;99.90
25328;DHT22;13279;51.300;12.394;2022-08-14T23:08:07;22.10;99.90
25328;DHT22;13279;51.300;12.394;2022-08-14T23:10:37;22.10;99.90
25328;DHT22;13279;51.300;12.394;2022-08-14T23:13:06;22.10;99.90
25328;DHT22;13279;51.300;12.394;2022-08-14T23:15:34;22.10;99.90
25328;DHT22;13279;51.300;12.394;2022-08-14T23:18:03;22.10;99.90
25328;DHT22;13279;51.300;12.394;2022-08-14T23:20:31;22.00;99.90
25328;DHT22;13279;51.300;12.394;2022-08-14T23:22:59;22.00;99.90
25328;DHT22;13279;51.300;12.394;2022-08-14T23:25:29;22.00;1.00
25328;DHT22;13279;51.300;12.394;2022-08-14T23:27:56;21.90;1.00
25328;DHT22;13279;51.300;12.394;2022-08-14T23:30:25;21.90;1.00
25328;DHT22;13279;51.300;12.394;2022-08-14T23:32:54;21.90;1.00
25328;DHT22;13279;51.300;12.394;2022-08-14T23:35:23;21.80;1.00
25328;DHT22;13279;51.300;12.394;2022-08-14T23:37:53;21.90;1.00
25328;DHT22;13279;51.300;12.394;2022-08-14T23:40:22;21.80;1.00
25328;DHT22;13279;51.300;12.394;2022-08-14T23:42:56;21.80;1.00
25328;DHT22;13279;51.300;12.394;2022-08-14T23:45:25;21.70;1.00
25328;DHT22;13279;51.300;12.394;2022-08-14T23:47:54;21.70;1.00
25328;DHT22;13279;51.300;12.394;2022-08-14T23:50:21;21.60;1.00
25328;DHT22;13279;51.300;12.394;2022-08-14T23:52:49;21.60;1.00
25328;DHT22;13279;51.300;12.394;2022-08-14T23:55:18;21.50;1.00
25328;DHT22;13279;51.300;12.394;2022-08-14T23:57:46;21.50;1.00
